首页
METAR-TAF:

METAR-TAF

机场 :

洛格罗尼奥, 西班牙

纬度: 42-27N, 经度: 002-20W, 海拔: 353米

当前天气观测

该预报发布于20分钟前的02:00 UTC
风速3节,风向东转东北,在北转东北东转东南之间变化
温度 7°C
湿度 93%
气压 1001 hPa
能见度10公里或以上
散云层高于6000英尺
阴天层高于7000英尺

METAR: LELO 140200Z AUTO 07003KT 030V110 9999 SCT060 OVC070 07/06 Q1001

时间: 03:20 (02:20 UTC)

预报

该预报发布于9小时和20分钟前的17:00 UTC
预报有效从13日的 18点(UTC)到 14日的 03点(UTC)
风速3节,风向多变
能见度10公里或以上
1500米以下无云,无积雨云
几率 30% :
短暂存在
从 14日的 00点(UTC)到 14日的 03点(UTC)
多云层高于1200英尺

TAF: LELO 131700Z 1318/1403 VRB03KT CAVOK PROB30 TEMPO 1400/1403 RA BKN012

超过4000个机场的气象观测和天气预报(METAR&TAF报告)。

可查询的气象台以黄色和红色小点在地图上表示。

将鼠标移到小点上方,可查看气象台名称。

然后点击查看天气观测和预报。

如需切换地图:点击带黑十字的绿色按钮放大地图;点击带横线的绿色按钮缩小地图;或者点击绿色箭头查看邻近地区的地图。


METAR-TAF: